sensor_id;sensor_type;location;lat;lon;timestamp;P1;durP1;ratioP1;P2;durP2;ratioP2
5195;SDS011;2617;51.006;12.436;2023-11-21T00:00:15;0.93;;;0.93;;
5195;SDS011;2617;51.006;12.436;2023-11-21T00:05:18;2.90;;;0.90;;
5195;SDS011;2617;51.006;12.436;2023-11-21T00:10:20;3.90;;;1.20;;
5195;SDS011;2617;51.006;12.436;2023-11-21T00:15:21;1.20;;;1.10;;
5195;SDS011;2617;51.006;12.436;2023-11-21T00:20:23;1.03;;;1.00;;
5195;SDS011;2617;51.006;12.436;2023-11-21T00:25:25;1.53;;;1.00;;
5195;SDS011;2617;51.006;12.436;2023-11-21T00:30:27;0.85;;;0.85;;
5195;SDS011;2617;51.006;12.436;2023-11-21T00:35:28;1.37;;;1.20;;
5195;SDS011;2617;51.006;12.436;2023-11-21T00:40:30;1.90;;;0.90;;
5195;SDS011;2617;51.006;12.436;2023-11-21T00:45:32;3.97;;;1.57;;
5195;SDS011;2617;51.006;12.436;2023-11-21T00:50:34;3.90;;;1.10;;
5195;SDS011;2617;51.006;12.436;2023-11-21T00:55:36;3.73;;;1.37;;
5195;SDS011;2617;51.006;12.436;2023-11-21T01:00:38;9.20;;;1.27;;
5195;SDS011;2617;51.006;12.436;2023-11-21T01:05:40;2.33;;;1.13;;
5195;SDS011;2617;51.006;12.436;2023-11-21T01:10:42;2.87;;;1.12;;
5195;SDS011;2617;51.006;12.436;2023-11-21T01:15:43;2.67;;;1.50;;
5195;SDS011;2617;51.006;12.436;2023-11-21T01:20:45;3.60;;;1.47;;
5195;SDS011;2617;51.006;12.436;2023-11-21T01:25:47;7.35;;;1.60;;
5195;SDS011;2617;51.006;12.436;2023-11-21T01:30:49;3.20;;;1.10;;
5195;SDS011;2617;51.006;12.436;2023-11-21T01:35:51;1.77;;;1.17;;
5195;SDS011;2617;51.006;12.436;2023-11-21T01:40:52;4.93;;;1.57;;
5195;SDS011;2617;51.006;12.436;2023-11-21T01:45:54;3.95;;;1.40;;
5195;SDS011;2617;51.006;12.436;2023-11-21T01:50:57;1.53;;;1.33;;
5195;SDS011;2617;51.006;12.436;2023-11-21T01:55:58;1.00;;;1.00;;
5195;SDS011;2617;51.006;12.436;2023-11-21T02:01:01;2.10;;;0.90;;
5195;SDS011;2617;51.006;12.436;2023-11-21T02:06:03;1.90;;;1.30;;
5195;SDS011;2617;51.006;12.436;2023-11-21T02:11:05;1.20;;;1.20;;
5195;SDS011;2617;51.006;12.436;2023-11-21T02:16:07;2.15;;;1.05;;
5195;SDS011;2617;51.006;12.436;2023-11-21T02:21:10;1.77;;;1.33;;
5195;SDS011;2617;51.006;12.436;2023-11-21T02:26:12;1.00;;;0.90;;
5195;SDS011;2617;51.006;12.436;2023-11-21T02:31:13;4.03;;;1.03;;
5195;SDS011;2617;51.006;12.436;2023-11-21T02:36:15;3.07;;;1.20;;
5195;SDS011;2617;51.006;12.436;2023-11-21T02:41:17;1.23;;;1.13;;
5195;SDS011;2617;51.006;12.436;2023-11-21T02:46:18;2.97;;;1.20;;
5195;SDS011;2617;51.006;12.436;2023-11-21T02:51:20;3.03;;;1.00;;
5195;SDS011;2617;51.006;12.436;2023-11-21T02:56:22;1.40;;;1.30;;
5195;SDS011;2617;51.006;12.436;2023-11-21T03:01:24;4.63;;;1.20;;
5195;SDS011;2617;51.006;12.436;2023-11-21T03:06:26;2.30;;;1.80;;
5195;SDS011;2617;51.006;12.436;2023-11-21T03:11:28;3.80;;;0.73;;
5195;SDS011;2617;51.006;12.436;2023-11-21T03:16:30;0.90;;;0.90;;
5195;SDS011;2617;51.006;12.436;2023-11-21T03:21:31;2.33;;;0.98;;
5195;SDS011;2617;51.006;12.436;2023-11-21T03:26:33;1.70;;;1.20;;
5195;SDS011;2617;51.006;12.436;2023-11-21T03:31:35;1.83;;;0.80;;
5195;SDS011;2617;51.006;12.436;2023-11-21T03:36:36;1.12;;;0.90;;
5195;SDS011;2617;51.006;12.436;2023-11-21T03:41:38;3.93;;;1.23;;
5195;SDS011;2617;51.006;12.436;2023-11-21T03:46:41;2.10;;;1.00;;
5195;SDS011;2617;51.006;12.436;2023-11-21T03:51:42;3.50;;;1.03;;
5195;SDS011;2617;51.006;12.436;2023-11-21T03:56:45;3.17;;;1.30;;
5195;SDS011;2617;51.006;12.436;2023-11-21T04:01:46;1.47;;;1.20;;
5195;SDS011;2617;51.006;12.436;2023-11-21T04:06:48;1.57;;;1.20;;
5195;SDS011;2617;51.006;12.436;2023-11-21T04:11:50;3.03;;;1.00;;
5195;SDS011;2617;51.006;12.436;2023-11-21T04:16:52;2.43;;;1.47;;
5195;SDS011;2617;51.006;12.436;2023-11-21T04:21:54;4.73;;;1.03;;
5195;SDS011;2617;51.006;12.436;2023-11-21T04:26:56;1.10;;;1.00;;
5195;SDS011;2617;51.006;12.436;2023-11-21T04:31:58;2.60;;;1.60;;
5195;SDS011;2617;51.006;12.436;2023-11-21T04:36:59;0.90;;;0.90;;
5195;SDS011;2617;51.006;12.436;2023-11-21T04:42:01;2.80;;;0.88;;
5195;SDS011;2617;51.006;12.436;2023-11-21T04:47:03;3.75;;;1.33;;
5195;SDS011;2617;51.006;12.436;2023-11-21T04:52:05;3.30;;;1.70;;
5195;SDS011;2617;51.006;12.436;2023-11-21T04:57:06;4.47;;;1.37;;
5195;SDS011;2617;51.006;12.436;2023-11-21T05:02:08;3.80;;;1.20;;
5195;SDS011;2617;51.006;12.436;2023-11-21T05:07:11;2.20;;;1.67;;
5195;SDS011;2617;51.006;12.436;2023-11-21T05:12:12;1.33;;;1.23;;
5195;SDS011;2617;51.006;12.436;2023-11-21T05:17:14;2.00;;;1.60;;
5195;SDS011;2617;51.006;12.436;2023-11-21T05:22:16;2.57;;;1.43;;
5195;SDS011;2617;51.006;12.436;2023-11-21T05:27:17;5.83;;;1.73;;
5195;SDS011;2617;51.006;12.436;2023-11-21T05:32:20;3.27;;;1.73;;
5195;SDS011;2617;51.006;12.436;2023-11-21T05:37:22;7.95;;;2.20;;
5195;SDS011;2617;51.006;12.436;2023-11-21T05:42:24;2.50;;;1.70;;
5195;SDS011;2617;51.006;12.436;2023-11-21T05:47:26;2.17;;;1.73;;
5195;SDS011;2617;51.006;12.436;2023-11-21T05:52:28;2.00;;;1.80;;
5195;SDS011;2617;51.006;12.436;2023-11-21T05:57:29;3.40;;;2.20;;
5195;SDS011;2617;51.006;12.436;2023-11-21T06:02:31;4.63;;;2.07;;
5195;SDS011;2617;51.006;12.436;2023-11-21T06:07:33;4.23;;;2.27;;
5195;SDS011;2617;51.006;12.436;2023-11-21T06:12:37;5.00;;;2.23;;
5195;SDS011;2617;51.006;12.436;2023-11-21T06:17:39;3.22;;;2.30;;
5195;SDS011;2617;51.006;12.436;2023-11-21T06:22:41;9.10;;;2.30;;
5195;SDS011;2617;51.006;12.436;2023-11-21T06:27:44;2.80;;;2.60;;
5195;SDS011;2617;51.006;12.436;2023-11-21T06:32:44;4.87;;;3.07;;
5195;SDS011;2617;51.006;12.436;2023-11-21T06:37:46;10.90;;;4.10;;
5195;SDS011;2617;51.006;12.436;2023-11-21T06:42:48;6.28;;;3.10;;
5195;SDS011;2617;51.006;12.436;2023-11-21T06:47:49;10.23;;;3.97;;
5195;SDS011;2617;51.006;12.436;2023-11-21T06:52:51;11.80;;;4.70;;
5195;SDS011;2617;51.006;12.436;2023-11-21T06:57:53;7.60;;;4.03;;
5195;SDS011;2617;51.006;12.436;2023-11-21T07:02:55;10.53;;;4.23;;
5195;SDS011;2617;51.006;12.436;2023-11-21T07:07:57;12.53;;;4.20;;
5195;SDS011;2617;51.006;12.436;2023-11-21T07:13:02;10.02;;;4.07;;
5195;SDS011;2617;51.006;12.436;2023-11-21T07:18:04;11.07;;;5.20;;
5195;SDS011;2617;51.006;12.436;2023-11-21T07:23:06;10.30;;;4.33;;
5195;SDS011;2617;51.006;12.436;2023-11-21T07:28:09;11.37;;;5.00;;
5195;SDS011;2617;51.006;12.436;2023-11-21T07:33:10;9.60;;;5.20;;
5195;SDS011;2617;51.006;12.436;2023-11-21T07:38:12;13.07;;;5.70;;
5195;SDS011;2617;51.006;12.436;2023-11-21T07:43:14;8.93;;;5.60;;
5195;SDS011;2617;51.006;12.436;2023-11-21T07:48:15;14.30;;;5.27;;
5195;SDS011;2617;51.006;12.436;2023-11-21T07:53:18;16.20;;;6.93;;
5195;SDS011;2617;51.006;12.436;2023-11-21T07:58:20;13.00;;;6.33;;
5195;SDS011;2617;51.006;12.436;2023-11-21T08:03:22;12.03;;;6.10;;
5195;SDS011;2617;51.006;12.436;2023-11-21T08:08:25;14.70;;;5.30;;
5195;SDS011;2617;51.006;12.436;2023-11-21T08:13:27;8.57;;;5.13;;
5195;SDS011;2617;51.006;12.436;2023-11-21T08:18:28;19.13;;;6.37;;
5195;SDS011;2617;51.006;12.436;2023-11-21T08:23:30;15.03;;;6.27;;
5195;SDS011;2617;51.006;12.436;2023-11-21T08:28:32;9.68;;;5.25;;
5195;SDS011;2617;51.006;12.436;2023-11-21T08:33:34;9.27;;;5.50;;
5195;SDS011;2617;51.006;12.436;2023-11-21T08:38:36;16.23;;;7.57;;
5195;SDS011;2617;51.006;12.436;2023-11-21T08:43:38;8.07;;;5.37;;
5195;SDS011;2617;51.006;12.436;2023-11-21T08:48:41;8.13;;;5.83;;
5195;SDS011;2617;51.006;12.436;2023-11-21T08:53:43;11.60;;;5.85;;
5195;SDS011;2617;51.006;12.436;2023-11-21T08:58:45;13.60;;;6.10;;
5195;SDS011;2617;51.006;12.436;2023-11-21T09:03:47;13.40;;;6.97;;
5195;SDS011;2617;51.006;12.436;2023-11-21T09:08:49;12.87;;;8.00;;
5195;SDS011;2617;51.006;12.436;2023-11-21T09:13:51;15.47;;;8.97;;
5195;SDS011;2617;51.006;12.436;2023-11-21T09:18:53;21.07;;;12.50;;
5195;SDS011;2617;51.006;12.436;2023-11-21T09:23:56;19.90;;;11.50;;
5195;SDS011;2617;51.006;12.436;2023-11-21T09:28:58;25.43;;;11.40;;
5195;SDS011;2617;51.006;12.436;2023-11-21T09:34:00;25.10;;;17.62;;
5195;SDS011;2617;51.006;12.436;2023-11-21T09:39:02;25.10;;;11.50;;
5195;SDS011;2617;51.006;12.436;2023-11-21T09:44:04;24.65;;;12.13;;
5195;SDS011;2617;51.006;12.436;2023-11-21T09:49:06;28.23;;;11.70;;
5195;SDS011;2617;51.006;12.436;2023-11-21T09:54:10;28.08;;;11.45;;
5195;SDS011;2617;51.006;12.436;2023-11-21T09:59:13;26.77;;;11.37;;
5195;SDS011;2617;51.006;12.436;2023-11-21T10:04:13;25.00;;;10.05;;
5195;SDS011;2617;51.006;12.436;2023-11-21T10:09:14;24.33;;;10.43;;
5195;SDS011;2617;51.006;12.436;2023-11-21T10:14:19;29.48;;;10.25;;
5195;SDS011;2617;51.006;12.436;2023-11-21T10:19:21;13.43;;;7.30;;
5195;SDS011;2617;51.006;12.436;2023-11-21T10:24:23;13.17;;;8.30;;
5195;SDS011;2617;51.006;12.436;2023-11-21T10:29:25;13.53;;;8.53;;
5195;SDS011;2617;51.006;12.436;2023-11-21T10:34:27;14.25;;;8.13;;
5195;SDS011;2617;51.006;12.436;2023-11-21T10:39:28;11.87;;;8.43;;
5195;SDS011;2617;51.006;12.436;2023-11-21T10:44:31;15.97;;;8.60;;
5195;SDS011;2617;51.006;12.436;2023-11-21T10:49:33;12.25;;;7.45;;
5195;SDS011;2617;51.006;12.436;2023-11-21T10:54:35;29.20;;;9.80;;
5195;SDS011;2617;51.006;12.436;2023-11-21T10:59:38;16.57;;;8.83;;
5195;SDS011;2617;51.006;12.436;2023-11-21T11:04:40;20.67;;;8.40;;
5195;SDS011;2617;51.006;12.436;2023-11-21T11:09:42;15.90;;;8.67;;
5195;SDS011;2617;51.006;12.436;2023-11-21T11:14:44;22.73;;;9.60;;
5195;SDS011;2617;51.006;12.436;2023-11-21T11:19:46;17.27;;;8.80;;
5195;SDS011;2617;51.006;12.436;2023-11-21T11:24:57;15.77;;;10.23;;
5195;SDS011;2617;51.006;12.436;2023-11-21T11:30:04;15.70;;;8.60;;
5195;SDS011;2617;51.006;12.436;2023-11-21T11:35:04;17.33;;;8.97;;
5195;SDS011;2617;51.006;12.436;2023-11-21T11:40:07;11.70;;;7.00;;
5195;SDS011;2617;51.006;12.436;2023-11-21T11:45:19;13.37;;;6.07;;
5195;SDS011;2617;51.006;12.436;2023-11-21T11:50:20;9.50;;;5.00;;
5195;SDS011;2617;51.006;12.436;2023-11-21T11:55:23;7.07;;;4.07;;
5195;SDS011;2617;51.006;12.436;2023-11-21T12:05:41;15.05;;;5.75;;
5195;SDS011;2617;51.006;12.436;2023-11-21T12:10:43;11.00;;;5.90;;
5195;SDS011;2617;51.006;12.436;2023-11-21T12:15:46;8.68;;;5.55;;
5195;SDS011;2617;51.006;12.436;2023-11-21T12:20:47;10.47;;;6.47;;
5195;SDS011;2617;51.006;12.436;2023-11-21T12:25:49;18.48;;;9.30;;
5195;SDS011;2617;51.006;12.436;2023-11-21T12:30:51;13.53;;;7.30;;
5195;SDS011;2617;51.006;12.436;2023-11-21T12:35:52;13.90;;;8.60;;
5195;SDS011;2617;51.006;12.436;2023-11-21T12:40:54;13.70;;;8.10;;
5195;SDS011;2617;51.006;12.436;2023-11-21T12:51:08;9.60;;;6.50;;
5195;SDS011;2617;51.006;12.436;2023-11-21T12:56:10;14.48;;;8.60;;
5195;SDS011;2617;51.006;12.436;2023-11-21T13:01:13;17.77;;;13.20;;
5195;SDS011;2617;51.006;12.436;2023-11-21T13:06:15;15.07;;;7.73;;
5195;SDS011;2617;51.006;12.436;2023-11-21T13:11:18;17.00;;;8.47;;
5195;SDS011;2617;51.006;12.436;2023-11-21T13:16:19;20.77;;;9.90;;
5195;SDS011;2617;51.006;12.436;2023-11-21T13:21:21;18.30;;;9.57;;
5195;SDS011;2617;51.006;12.436;2023-11-21T13:26:23;13.95;;;8.02;;
5195;SDS011;2617;51.006;12.436;2023-11-21T13:31:25;19.80;;;9.43;;
5195;SDS011;2617;51.006;12.436;2023-11-21T13:36:27;22.17;;;10.63;;
5195;SDS011;2617;51.006;12.436;2023-11-21T13:41:30;21.92;;;11.12;;
5195;SDS011;2617;51.006;12.436;2023-11-21T13:46:32;14.67;;;7.57;;
5195;SDS011;2617;51.006;12.436;2023-11-21T13:51:34;7.57;;;4.60;;
5195;SDS011;2617;51.006;12.436;2023-11-21T13:56:46;4.78;;;3.67;;
5195;SDS011;2617;51.006;12.436;2023-11-21T14:01:47;8.83;;;5.30;;
5195;SDS011;2617;51.006;12.436;2023-11-21T14:06:55;14.10;;;8.20;;
5195;SDS011;2617;51.006;12.436;2023-11-21T14:11:56;11.73;;;6.77;;
5195;SDS011;2617;51.006;12.436;2023-11-21T14:16:58;15.70;;;8.53;;
5195;SDS011;2617;51.006;12.436;2023-11-21T14:22:00;16.90;;;8.97;;
5195;SDS011;2617;51.006;12.436;2023-11-21T14:27:02;18.77;;;9.07;;
5195;SDS011;2617;51.006;12.436;2023-11-21T14:32:04;17.20;;;8.67;;
5195;SDS011;2617;51.006;12.436;2023-11-21T14:37:06;18.80;;;10.03;;
5195;SDS011;2617;51.006;12.436;2023-11-21T14:42:08;22.13;;;14.00;;
5195;SDS011;2617;51.006;12.436;2023-11-21T14:47:10;24.17;;;9.75;;
5195;SDS011;2617;51.006;12.436;2023-11-21T14:52:14;20.37;;;9.60;;
5195;SDS011;2617;51.006;12.436;2023-11-21T14:57:32;28.17;;;13.73;;
5195;SDS011;2617;51.006;12.436;2023-11-21T15:02:34;25.43;;;12.37;;
5195;SDS011;2617;51.006;12.436;2023-11-21T15:07:41;19.50;;;12.23;;
5195;SDS011;2617;51.006;12.436;2023-11-21T15:12:43;19.83;;;10.40;;
5195;SDS011;2617;51.006;12.436;2023-11-21T15:17:45;27.20;;;10.90;;
5195;SDS011;2617;51.006;12.436;2023-11-21T15:22:47;22.97;;;10.70;;
5195;SDS011;2617;51.006;12.436;2023-11-21T15:27:49;20.83;;;10.43;;
5195;SDS011;2617;51.006;12.436;2023-11-21T15:32:51;21.10;;;12.27;;
5195;SDS011;2617;51.006;12.436;2023-11-21T15:37:52;15.40;;;8.37;;
5195;SDS011;2617;51.006;12.436;2023-11-21T15:42:54;15.13;;;7.63;;
5195;SDS011;2617;51.006;12.436;2023-11-21T15:47:56;11.13;;;5.27;;
5195;SDS011;2617;51.006;12.436;2023-11-21T15:52:57;10.13;;;6.43;;
5195;SDS011;2617;51.006;12.436;2023-11-21T15:57:59;13.33;;;6.00;;
5195;SDS011;2617;51.006;12.436;2023-11-21T16:03:01;10.00;;;7.30;;
5195;SDS011;2617;51.006;12.436;2023-11-21T16:08:03;19.73;;;12.60;;
5195;SDS011;2617;51.006;12.436;2023-11-21T16:13:05;13.83;;;5.73;;
5195;SDS011;2617;51.006;12.436;2023-11-21T16:18:07;7.77;;;6.07;;
5195;SDS011;2617;51.006;12.436;2023-11-21T16:23:09;8.70;;;5.40;;
5195;SDS011;2617;51.006;12.436;2023-11-21T16:28:11;8.53;;;5.37;;
5195;SDS011;2617;51.006;12.436;2023-11-21T16:33:13;6.30;;;5.10;;
5195;SDS011;2617;51.006;12.436;2023-11-21T16:38:15;6.80;;;5.30;;
5195;SDS011;2617;51.006;12.436;2023-11-21T16:43:17;8.67;;;4.60;;
5195;SDS011;2617;51.006;12.436;2023-11-21T16:48:18;6.18;;;4.25;;
5195;SDS011;2617;51.006;12.436;2023-11-21T16:53:20;5.37;;;4.13;;
5195;SDS011;2617;51.006;12.436;2023-11-21T16:58:22;6.03;;;5.40;;
5195;SDS011;2617;51.006;12.436;2023-11-21T17:03:24;5.83;;;4.17;;
5195;SDS011;2617;51.006;12.436;2023-11-21T17:08:25;6.43;;;5.67;;
5195;SDS011;2617;51.006;12.436;2023-11-21T17:13:27;4.20;;;3.80;;
5195;SDS011;2617;51.006;12.436;2023-11-21T17:18:30;7.33;;;5.40;;
5195;SDS011;2617;51.006;12.436;2023-11-21T17:23:33;4.65;;;4.12;;
5195;SDS011;2617;51.006;12.436;2023-11-21T17:28:34;5.57;;;4.70;;
5195;SDS011;2617;51.006;12.436;2023-11-21T17:33:37;5.10;;;4.13;;
5195;SDS011;2617;51.006;12.436;2023-11-21T17:38:38;6.97;;;3.85;;
5195;SDS011;2617;51.006;12.436;2023-11-21T17:43:40;4.37;;;3.30;;
5195;SDS011;2617;51.006;12.436;2023-11-21T17:48:42;3.63;;;3.33;;
5195;SDS011;2617;51.006;12.436;2023-11-21T17:53:44;3.77;;;3.37;;
5195;SDS011;2617;51.006;12.436;2023-11-21T17:58:46;4.12;;;3.35;;
5195;SDS011;2617;51.006;12.436;2023-11-21T18:03:48;2.35;;;2.15;;
5195;SDS011;2617;51.006;12.436;2023-11-21T18:08:49;3.63;;;2.87;;
5195;SDS011;2617;51.006;12.436;2023-11-21T18:13:52;2.80;;;2.60;;
5195;SDS011;2617;51.006;12.436;2023-11-21T18:18:53;3.50;;;3.20;;
5195;SDS011;2617;51.006;12.436;2023-11-21T18:23:55;2.77;;;2.57;;
5195;SDS011;2617;51.006;12.436;2023-11-21T18:28:57;3.90;;;3.57;;
5195;SDS011;2617;51.006;12.436;2023-11-21T18:33:59;3.70;;;2.93;;
5195;SDS011;2617;51.006;12.436;2023-11-21T18:39:01;3.13;;;2.83;;
5195;SDS011;2617;51.006;12.436;2023-11-21T18:44:04;3.55;;;3.25;;
5195;SDS011;2617;51.006;12.436;2023-11-21T18:49:06;4.00;;;3.60;;
5195;SDS011;2617;51.006;12.436;2023-11-21T18:54:08;3.40;;;3.10;;
5195;SDS011;2617;51.006;12.436;2023-11-21T18:59:10;4.37;;;3.30;;
5195;SDS011;2617;51.006;12.436;2023-11-21T19:04:12;4.20;;;3.80;;
5195;SDS011;2617;51.006;12.436;2023-11-21T19:09:14;3.73;;;3.13;;
5195;SDS011;2617;51.006;12.436;2023-11-21T19:14:16;3.00;;;2.80;;
5195;SDS011;2617;51.006;12.436;2023-11-21T19:19:17;5.50;;;4.55;;
5195;SDS011;2617;51.006;12.436;2023-11-21T19:24:19;3.97;;;3.50;;
5195;SDS011;2617;51.006;12.436;2023-11-21T19:29:22;4.87;;;4.43;;
5195;SDS011;2617;51.006;12.436;2023-11-21T19:34:23;4.50;;;3.77;;
5195;SDS011;2617;51.006;12.436;2023-11-21T19:39:25;5.10;;;4.13;;
5195;SDS011;2617;51.006;12.436;2023-11-21T19:44:28;4.77;;;3.80;;
5195;SDS011;2617;51.006;12.436;2023-11-21T19:49:30;3.12;;;2.83;;
5195;SDS011;2617;51.006;12.436;2023-11-21T19:54:33;4.47;;;3.20;;
5195;SDS011;2617;51.006;12.436;2023-11-21T19:59:34;8.17;;;5.07;;
5195;SDS011;2617;51.006;12.436;2023-11-21T20:04:37;4.95;;;4.55;;
5195;SDS011;2617;51.006;12.436;2023-11-21T20:09:39;5.35;;;4.45;;
5195;SDS011;2617;51.006;12.436;2023-11-21T20:14:41;6.87;;;4.80;;
5195;SDS011;2617;51.006;12.436;2023-11-21T20:19:43;5.07;;;4.20;;
5195;SDS011;2617;51.006;12.436;2023-11-21T20:24:45;7.00;;;6.30;;
5195;SDS011;2617;51.006;12.436;2023-11-21T20:29:46;11.33;;;6.83;;
5195;SDS011;2617;51.006;12.436;2023-11-21T20:34:48;11.90;;;8.50;;
5195;SDS011;2617;51.006;12.436;2023-11-21T20:39:50;4.15;;;3.47;;
5195;SDS011;2617;51.006;12.436;2023-11-21T20:44:52;2.83;;;2.53;;
5195;SDS011;2617;51.006;12.436;2023-11-21T20:49:54;3.10;;;2.80;;
5195;SDS011;2617;51.006;12.436;2023-11-21T20:54:56;3.90;;;3.50;;
5195;SDS011;2617;51.006;12.436;2023-11-21T20:59:58;3.67;;;3.10;;
5195;SDS011;2617;51.006;12.436;2023-11-21T21:05:00;5.37;;;4.40;;
5195;SDS011;2617;51.006;12.436;2023-11-21T21:10:02;5.00;;;4.30;;
5195;SDS011;2617;51.006;12.436;2023-11-21T21:15:05;3.80;;;3.50;;
5195;SDS011;2617;51.006;12.436;2023-11-21T21:20:07;6.83;;;5.77;;
5195;SDS011;2617;51.006;12.436;2023-11-21T21:25:10;11.00;;;7.80;;
5195;SDS011;2617;51.006;12.436;2023-11-21T21:30:14;11.43;;;9.50;;
5195;SDS011;2617;51.006;12.436;2023-11-21T21:35:16;15.30;;;10.03;;
5195;SDS011;2617;51.006;12.436;2023-11-21T21:40:18;16.23;;;10.90;;
5195;SDS011;2617;51.006;12.436;2023-11-21T21:45:19;18.43;;;11.70;;
5195;SDS011;2617;51.006;12.436;2023-11-21T21:50:22;16.20;;;10.40;;
5195;SDS011;2617;51.006;12.436;2023-11-21T21:55:24;18.17;;;11.00;;
5195;SDS011;2617;51.006;12.436;2023-11-21T22:00:25;18.13;;;10.93;;
5195;SDS011;2617;51.006;12.436;2023-11-21T22:05:28;14.20;;;9.23;;
5195;SDS011;2617;51.006;12.436;2023-11-21T22:10:30;16.80;;;10.73;;
5195;SDS011;2617;51.006;12.436;2023-11-21T22:15:31;10.67;;;7.60;;
5195;SDS011;2617;51.006;12.436;2023-11-21T22:20:34;11.77;;;7.10;;
5195;SDS011;2617;51.006;12.436;2023-11-21T22:25:37;11.35;;;7.40;;
5195;SDS011;2617;51.006;12.436;2023-11-21T22:30:38;10.43;;;7.20;;
5195;SDS011;2617;51.006;12.436;2023-11-21T22:35:40;15.90;;;10.33;;
5195;SDS011;2617;51.006;12.436;2023-11-21T22:40:43;13.70;;;9.40;;
5195;SDS011;2617;51.006;12.436;2023-11-21T22:45:44;13.83;;;8.30;;
5195;SDS011;2617;51.006;12.436;2023-11-21T22:50:46;11.67;;;8.33;;
5195;SDS011;2617;51.006;12.436;2023-11-21T22:55:49;11.70;;;8.37;;
5195;SDS011;2617;51.006;12.436;2023-11-21T23:00:50;13.80;;;8.57;;
5195;SDS011;2617;51.006;12.436;2023-11-21T23:05:52;13.50;;;9.30;;
5195;SDS011;2617;51.006;12.436;2023-11-21T23:10:54;17.60;;;11.00;;
5195;SDS011;2617;51.006;12.436;2023-11-21T23:15:55;19.77;;;11.70;;
5195;SDS011;2617;51.006;12.436;2023-11-21T23:20:57;18.27;;;10.47;;
5195;SDS011;2617;51.006;12.436;2023-11-21T23:25:59;16.42;;;10.63;;
5195;SDS011;2617;51.006;12.436;2023-11-21T23:31:01;15.70;;;9.10;;
5195;SDS011;2617;51.006;12.436;2023-11-21T23:36:02;18.53;;;10.00;;
5195;SDS011;2617;51.006;12.436;2023-11-21T23:41:04;21.20;;;10.03;;
5195;SDS011;2617;51.006;12.436;2023-11-21T23:46:06;16.37;;;9.43;;
5195;SDS011;2617;51.006;12.436;2023-11-21T23:51:08;18.63;;;9.67;;
5195;SDS011;2617;51.006;12.436;2023-11-21T23:56:11;12.57;;;8.70;;
